createdAt,value
2019-03-17T00:00:31.150Z,0.80
2019-03-17T00:02:59.781Z,0.90
2019-03-17T00:05:28.422Z,0.70
2019-03-17T00:07:57.301Z,1.00
2019-03-17T00:10:25.914Z,0.65
2019-03-17T00:12:54.521Z,0.80
2019-03-17T00:15:23.166Z,0.90
2019-03-17T00:17:52.104Z,0.72
2019-03-17T00:20:20.806Z,0.72
2019-03-17T00:22:54.187Z,0.70
2019-03-17T00:25:22.687Z,0.90
2019-03-17T00:27:51.168Z,0.70
2019-03-17T00:30:30.083Z,0.75
2019-03-17T00:33:01.798Z,0.95
2019-03-17T00:35:32.049Z,1.00
2019-03-17T00:38:00.735Z,1.00
2019-03-17T00:40:29.389Z,0.70
2019-03-17T00:42:57.977Z,0.88
2019-03-17T00:45:45.936Z,0.80
2019-03-17T00:48:17.523Z,1.20
2019-03-17T00:50:48.777Z,1.20
2019-03-17T00:53:16.541Z,0.80
2019-03-17T00:55:55.791Z,1.00
2019-03-17T00:58:24.580Z,0.90
2019-03-17T01:01:07.113Z,1.10
2019-03-17T01:03:23.452Z,0.80
2019-03-17T01:05:52.111Z,1.00
2019-03-17T01:08:22.445Z,0.82
2019-03-17T01:10:51.695Z,0.72
2019-03-17T01:13:23.578Z,1.00
2019-03-17T01:15:53.662Z,1.30
2019-03-17T01:18:23.730Z,0.70
2019-03-17T01:20:52.457Z,1.12
2019-03-17T01:23:23.399Z,0.90
2019-03-17T01:25:55.619Z,1.10
2019-03-17T01:28:26.489Z,1.30
2019-03-17T01:30:55.090Z,1.22
2019-03-17T01:33:26.402Z,1.30
2019-03-17T01:35:58.322Z,1.30
2019-03-17T01:38:26.891Z,1.55
2019-03-17T01:43:43.371Z,2.52
2019-03-17T01:46:11.891Z,2.08
2019-03-17T01:48:40.537Z,1.80
2019-03-17T01:51:09.298Z,1.72
2019-03-17T01:53:37.896Z,1.70
2019-03-17T01:56:10.530Z,1.90
2019-03-17T01:58:39.358Z,2.08
2019-03-17T02:01:08.069Z,2.52
2019-03-17T02:03:41.888Z,2.05
2019-03-17T02:06:10.186Z,2.02
2019-03-17T02:08:38.888Z,2.70
2019-03-17T02:11:07.444Z,2.30
2019-03-17T02:13:39.070Z,2.27
2019-03-17T02:16:07.751Z,2.65
2019-03-17T02:18:36.607Z,2.50
2019-03-17T02:21:05.542Z,1.10
2019-03-17T02:23:34.121Z,0.78
2019-03-17T02:26:02.681Z,0.80
2019-03-17T02:28:31.562Z,0.90
2019-03-17T02:31:00.260Z,0.72
2019-03-17T02:33:28.873Z,0.80
2019-03-17T02:36:03.814Z,0.85
2019-03-17T02:41:21.680Z,0.80
2019-03-17T02:43:50.421Z,1.00
2019-03-17T02:46:20.589Z,1.17
2019-03-17T02:48:53.808Z,1.13
2019-03-17T02:51:22.531Z,1.45
2019-03-17T02:53:51.195Z,1.60
2019-03-17T02:56:19.853Z,1.80
2019-03-17T02:58:48.439Z,2.00
2019-03-17T03:01:20.185Z,2.10
2019-03-17T03:03:48.885Z,1.90
2019-03-17T03:06:19.119Z,2.50
2019-03-17T03:08:47.878Z,2.50
2019-03-17T03:11:16.582Z,2.40
2019-03-17T03:13:45.264Z,2.45
2019-03-17T03:16:13.944Z,2.92
2019-03-17T03:18:42.701Z,3.05
2019-03-17T03:21:11.341Z,2.80
2019-03-17T03:23:41.728Z,2.40
2019-03-17T03:26:10.580Z,2.42
2019-03-17T03:28:39.141Z,2.62
2019-03-17T03:31:07.730Z,2.08
2019-03-17T03:33:41.599Z,2.52
2019-03-17T03:36:11.901Z,2.35
2019-03-17T03:38:40.626Z,2.50
2019-03-17T03:41:10.931Z,2.10
2019-03-17T03:43:39.521Z,2.30
2019-03-17T03:46:08.136Z,3.08
2019-03-17T03:48:38.326Z,2.27
2019-03-17T03:51:06.933Z,1.93
2019-03-17T03:53:35.593Z,2.30
2019-03-17T03:56:06.031Z,1.80
2019-03-17T03:58:34.719Z,1.60
2019-03-17T04:01:03.330Z,2.15
2019-03-17T04:03:32.064Z,2.42
2019-03-17T04:06:02.271Z,1.87
2019-03-17T04:08:36.467Z,2.63
2019-03-17T04:11:06.944Z,2.05
2019-03-17T04:13:37.131Z,1.92
2019-03-17T04:16:14.611Z,2.67
2019-03-17T04:18:44.829Z,1.70
2019-03-17T04:21:13.451Z,1.90
2019-03-17T04:23:42.191Z,1.70
2019-03-17T04:26:12.472Z,2.25
2019-03-17T04:28:41.003Z,1.60
2019-03-17T04:31:09.728Z,1.60
2019-03-17T04:33:38.413Z,1.60
2019-03-17T04:36:07.118Z,1.60
2019-03-17T04:38:35.701Z,1.60
2019-03-17T04:41:04.381Z,1.27
2019-03-17T04:43:53.913Z,1.70
2019-03-17T04:46:22.678Z,1.67
2019-03-17T04:48:57.536Z,1.42
2019-03-17T04:51:26.317Z,1.65
2019-03-17T04:53:54.829Z,1.27
2019-03-17T04:56:23.452Z,1.40
2019-03-17T04:59:11.641Z,1.60
2019-03-17T05:01:41.873Z,1.35
2019-03-17T05:04:13.814Z,1.90
2019-03-17T05:06:52.402Z,1.47
2019-03-17T05:09:15.371Z,1.72
2019-03-17T05:11:44.041Z,1.47
2019-03-17T05:14:32.213Z,1.30
2019-03-17T05:17:03.588Z,1.65
2019-03-17T05:19:35.307Z,1.87
2019-03-17T05:22:06.617Z,1.87
2019-03-17T05:24:35.393Z,1.47
2019-03-17T05:27:05.647Z,1.62
2019-03-17T05:29:35.986Z,1.50
2019-03-17T05:32:06.213Z,1.80
2019-03-17T05:34:34.820Z,1.55
2019-03-17T05:37:07.046Z,1.87
2019-03-17T05:39:39.324Z,2.33
2019-03-17T05:42:12.614Z,1.55
2019-03-17T05:45:00.630Z,1.50
2019-03-17T05:47:29.203Z,1.80
2019-03-17T05:49:59.261Z,1.35
2019-03-17T05:52:29.294Z,1.70
2019-03-17T05:54:58.266Z,1.55
2019-03-17T05:57:29.751Z,1.60
2019-03-17T05:59:58.459Z,1.57
2019-03-17T06:02:30.189Z,1.40
2019-03-17T06:05:00.506Z,1.40
2019-03-17T06:07:30.602Z,2.35
2019-03-17T06:10:00.723Z,1.73
2019-03-17T06:12:29.404Z,1.73
2019-03-17T06:14:57.920Z,1.57
2019-03-17T06:17:26.799Z,1.30
2019-03-17T06:19:55.452Z,1.45
2019-03-17T06:22:30.282Z,1.37
2019-03-17T06:24:58.941Z,1.60
2019-03-17T06:27:27.563Z,1.42
2019-03-17T06:29:56.238Z,1.47
2019-03-17T06:32:25.191Z,1.40
2019-03-17T06:34:53.712Z,1.40
2019-03-17T06:37:30.908Z,1.22
2019-03-17T06:39:52.941Z,1.32
2019-03-17T06:42:24.460Z,1.20
2019-03-17T06:44:53.091Z,1.57
2019-03-17T06:47:21.834Z,1.62
2019-03-17T06:49:52.094Z,1.60
2019-03-17T06:52:22.509Z,1.45
2019-03-17T06:54:51.210Z,1.30
2019-03-17T06:57:19.706Z,1.40
2019-03-17T06:59:48.490Z,1.35
2019-03-17T07:02:17.270Z,1.47
2019-03-17T07:04:49.991Z,1.40
2019-03-17T07:07:18.673Z,1.10
2019-03-17T07:09:49.093Z,1.40
2019-03-17T07:12:17.702Z,1.20
2019-03-17T07:14:46.333Z,1.40
2019-03-17T07:17:19.387Z,1.25
2019-03-17T07:19:49.374Z,1.55
2019-03-17T07:22:17.985Z,1.42
2019-03-17T07:24:48.306Z,1.20
2019-03-17T07:27:21.225Z,1.20
2019-03-17T07:29:49.883Z,1.20
2019-03-17T07:32:18.610Z,1.32
2019-03-17T07:34:47.136Z,1.15
2019-03-17T07:37:15.673Z,1.40
2019-03-17T07:39:44.400Z,1.10
2019-03-17T07:42:15.799Z,1.25
2019-03-17T07:44:44.489Z,1.17
2019-03-17T07:47:13.298Z,1.02
2019-03-17T07:49:43.751Z,0.90
2019-03-17T07:52:14.729Z,1.22
2019-03-17T07:54:43.427Z,1.00
2019-03-17T07:57:13.654Z,1.00
2019-03-17T07:59:45.004Z,0.80
2019-03-17T08:02:16.589Z,1.00
2019-03-17T08:04:46.810Z,1.10
2019-03-17T08:07:19.274Z,0.90
2019-03-17T08:10:06.609Z,1.10
2019-03-17T08:12:35.218Z,1.00
2019-03-17T08:15:08.010Z,0.88
2019-03-17T08:17:36.694Z,0.80
2019-03-17T08:20:26.398Z,0.80
2019-03-17T08:23:00.564Z,0.80
2019-03-17T08:25:32.293Z,0.85
2019-03-17T08:28:01.027Z,1.05
2019-03-17T08:30:29.864Z,0.95
2019-03-17T08:32:58.461Z,1.02
2019-03-17T08:35:27.292Z,1.00
2019-03-17T08:37:56.039Z,1.10
2019-03-17T08:40:24.640Z,1.10
2019-03-17T08:43:02.013Z,1.00
2019-03-17T08:45:30.819Z,0.80
2019-03-17T08:48:00.982Z,1.15
2019-03-17T08:50:29.712Z,1.13
2019-03-17T08:52:58.457Z,0.90
2019-03-17T08:55:27.091Z,1.25
2019-03-17T08:58:06.297Z,0.90
2019-03-17T09:00:34.939Z,1.05
2019-03-17T09:03:05.016Z,1.47
2019-03-17T09:05:35.417Z,1.10
2019-03-17T09:08:05.722Z,0.98
2019-03-17T09:10:37.461Z,0.70
2019-03-17T09:13:06.129Z,1.00
2019-03-17T09:15:34.650Z,1.10
2019-03-17T09:18:18.491Z,1.10
2019-03-17T09:20:47.177Z,1.25
2019-03-17T09:23:15.832Z,1.05
2019-03-17T09:25:47.275Z,1.10
2019-03-17T09:28:19.002Z,1.00
2019-03-17T09:30:49.177Z,1.05
2019-03-17T09:33:17.830Z,1.17
2019-03-17T09:35:46.458Z,1.72
2019-03-17T09:38:20.252Z,1.10
2019-03-17T09:40:48.525Z,0.90
2019-03-17T09:43:22.674Z,1.10
2019-03-17T09:45:51.208Z,0.98
2019-03-17T09:48:19.938Z,0.90
2019-03-17T09:50:48.433Z,1.25
2019-03-17T09:53:17.099Z,0.80
2019-03-17T09:55:45.863Z,0.95
2019-03-17T09:58:19.735Z,0.90
2019-03-17T10:00:48.259Z,0.90
2019-03-17T10:03:18.593Z,1.00
2019-03-17T10:05:49.808Z,0.90
2019-03-17T10:08:19.608Z,1.00
2019-03-17T10:10:53.478Z,1.00
2019-03-17T10:13:22.291Z,0.70
2019-03-17T10:15:53.468Z,0.75
2019-03-17T10:18:22.088Z,1.30
2019-03-17T10:20:53.825Z,0.70
2019-03-17T10:23:22.486Z,1.00
2019-03-17T10:25:51.009Z,0.72
2019-03-17T10:28:22.445Z,1.00
2019-03-17T10:30:51.071Z,1.10
2019-03-17T10:33:19.576Z,0.90
2019-03-17T10:35:49.712Z,1.10
2019-03-17T10:38:18.423Z,0.70
2019-03-17T10:40:51.178Z,0.78
2019-03-17T10:43:19.801Z,0.80
2019-03-17T10:45:49.879Z,0.90
2019-03-17T10:48:18.501Z,1.20
2019-03-17T10:50:50.155Z,0.70
2019-03-17T10:53:18.694Z,1.00
2019-03-17T10:55:47.454Z,0.80
2019-03-17T10:58:18.424Z,1.30
2019-03-17T11:03:20.795Z,0.93
2019-03-17T11:05:49.484Z,0.70
2019-03-17T11:08:17.928Z,0.90
2019-03-17T11:10:50.255Z,0.88
2019-03-17T11:13:20.880Z,0.98
2019-03-17T11:15:49.469Z,0.90
2019-03-17T11:18:20.436Z,1.15
2019-03-17T11:23:18.323Z,0.98
2019-03-17T11:25:48.482Z,0.90
2019-03-17T11:28:16.994Z,1.30
2019-03-17T11:30:48.604Z,0.90
2019-03-17T11:33:20.247Z,0.88
2019-03-17T11:35:51.221Z,1.20
2019-03-17T11:38:20.671Z,0.80
2019-03-17T11:40:49.493Z,1.45
2019-03-17T11:43:21.081Z,1.77
2019-03-17T11:45:49.693Z,2.47
2019-03-17T11:48:24.139Z,2.00
2019-03-17T11:50:52.655Z,1.00
2019-03-17T11:53:21.237Z,2.12
2019-03-17T11:55:49.867Z,1.50
2019-03-17T11:58:18.317Z,2.10
2019-03-17T12:00:46.889Z,0.90
2019-03-17T12:03:15.415Z,1.05
2019-03-17T12:05:43.895Z,0.82
2019-03-17T12:08:12.406Z,1.12
2019-03-17T12:10:41.025Z,1.30
2019-03-17T12:13:09.532Z,1.20
2019-03-17T12:15:37.969Z,1.02
2019-03-17T12:18:06.607Z,1.10
2019-03-17T12:20:35.049Z,1.17
2019-03-17T12:23:03.555Z,1.70
2019-03-17T12:25:32.180Z,4.00
2019-03-17T12:28:00.838Z,4.47
2019-03-17T12:30:32.357Z,1.60
2019-03-17T12:33:01.136Z,0.98
2019-03-17T12:35:29.929Z,1.87
2019-03-17T12:37:58.411Z,1.22
2019-03-17T12:40:26.959Z,1.15
2019-03-17T12:42:55.417Z,0.90
2019-03-17T12:45:23.998Z,0.90
2019-03-17T12:47:52.481Z,1.10
2019-03-17T12:50:23.142Z,1.10
2019-03-17T12:52:51.579Z,0.78
2019-03-17T12:55:20.128Z,1.15
2019-03-17T12:57:48.557Z,2.90
2019-03-17T13:00:21.488Z,2.58
2019-03-17T13:02:49.956Z,1.50
2019-03-17T13:05:18.468Z,1.07
2019-03-17T13:07:46.994Z,1.30
2019-03-17T13:10:19.587Z,1.42
2019-03-17T13:12:48.043Z,1.67
2019-03-17T13:15:16.684Z,1.70
2019-03-17T13:17:45.166Z,2.35
2019-03-17T13:20:14.952Z,4.75
2019-03-17T13:22:43.548Z,2.33
2019-03-17T13:25:12.762Z,1.47
2019-03-17T13:27:41.348Z,0.90
2019-03-17T13:30:12.131Z,1.67
2019-03-17T13:32:40.607Z,1.07
2019-03-17T13:35:09.895Z,0.80
2019-03-17T13:37:38.347Z,1.30
2019-03-17T13:40:12.760Z,1.20
2019-03-17T13:42:41.291Z,0.85
2019-03-17T13:45:11.990Z,1.12
2019-03-17T13:47:40.599Z,1.20
2019-03-17T13:50:16.881Z,1.50
2019-03-17T13:52:45.411Z,1.52
2019-03-17T13:55:13.855Z,1.90
2019-03-17T13:57:57.115Z,2.20
2019-03-17T14:00:25.565Z,2.65
2019-03-17T14:02:54.007Z,1.15
2019-03-17T14:05:22.586Z,1.35
2019-03-17T14:07:51.114Z,1.30
2019-03-17T14:10:19.724Z,1.47
2019-03-17T14:12:48.338Z,1.30
2019-03-17T14:15:16.847Z,1.50
2019-03-17T14:17:45.295Z,1.47
2019-03-17T14:20:16.297Z,1.10
2019-03-17T14:25:24.207Z,1.20
2019-03-17T14:27:52.647Z,3.02
2019-03-17T14:30:21.155Z,1.52
2019-03-17T14:32:49.654Z,1.20
2019-03-17T14:35:21.502Z,1.32
2019-03-17T14:37:49.384Z,0.88
2019-03-17T14:40:17.901Z,1.22
2019-03-17T14:42:48.550Z,1.55
2019-03-17T14:45:17.879Z,0.95
2019-03-17T14:47:46.443Z,1.17
2019-03-17T14:50:22.686Z,0.78
2019-03-17T14:52:51.128Z,1.00
2019-03-17T14:55:19.639Z,1.20
2019-03-17T14:57:48.121Z,0.80
2019-03-17T15:00:20.540Z,0.70
2019-03-17T15:02:49.107Z,2.12
2019-03-17T15:05:17.770Z,1.05
2019-03-17T15:07:46.281Z,1.10
2019-03-17T15:10:20.189Z,0.72
2019-03-17T15:12:48.796Z,0.93
2019-03-17T15:15:18.280Z,0.60
2019-03-17T15:17:46.794Z,0.57
2019-03-17T15:20:25.763Z,0.50
2019-03-17T15:22:54.269Z,0.42
2019-03-17T15:25:22.855Z,0.45
2019-03-17T15:27:51.392Z,0.40
2019-03-17T15:30:29.806Z,1.00
2019-03-17T15:32:58.308Z,1.05
2019-03-17T15:35:26.807Z,1.32
2019-03-17T15:37:55.308Z,7.95
2019-03-17T15:40:23.866Z,5.37
2019-03-17T15:42:52.550Z,6.60
2019-03-17T15:45:24.065Z,7.60
2019-03-17T15:47:52.669Z,1.60
2019-03-17T15:50:23.316Z,2.87
2019-03-17T15:52:51.751Z,1.52
2019-03-17T15:55:20.350Z,2.95
2019-03-17T15:57:48.788Z,1.60
2019-03-17T16:00:24.813Z,2.50
2019-03-17T16:02:49.256Z,1.60
2019-03-17T16:05:19.204Z,1.00
2019-03-17T16:07:47.784Z,1.22
2019-03-17T16:10:29.589Z,0.98
2019-03-17T16:12:58.177Z,1.15
2019-03-17T16:15:26.752Z,1.67
2019-03-17T16:17:55.961Z,1.82
2019-03-17T16:20:26.493Z,2.52
2019-03-17T16:22:55.035Z,2.40
2019-03-17T16:25:28.490Z,2.30
2019-03-17T16:27:57.089Z,1.72
2019-03-17T16:30:30.504Z,1.67
2019-03-17T16:32:59.270Z,1.27
2019-03-17T16:35:27.783Z,1.37
2019-03-17T16:37:56.304Z,2.52
2019-03-17T16:40:26.328Z,3.65
2019-03-17T16:42:54.841Z,2.30
2019-03-17T16:45:23.518Z,2.02
2019-03-17T16:47:52.167Z,1.75
2019-03-17T16:50:24.206Z,1.90
2019-03-17T16:52:52.789Z,6.17
2019-03-17T16:55:23.046Z,3.20
2019-03-17T16:57:51.628Z,1.80
2019-03-17T17:00:22.102Z,2.08
2019-03-17T17:02:51.056Z,1.57
2019-03-17T17:05:22.669Z,1.70
2019-03-17T17:07:51.252Z,1.60
2019-03-17T17:10:27.034Z,1.57
2019-03-17T17:12:55.544Z,1.98
2019-03-17T17:15:28.503Z,1.70
2019-03-17T17:17:57.342Z,1.55
2019-03-17T17:20:33.647Z,1.62
2019-03-17T17:23:02.196Z,1.87
2019-03-17T17:25:30.699Z,2.20
2019-03-17T17:27:59.194Z,1.70
2019-03-17T17:30:27.691Z,1.75
2019-03-17T17:32:56.269Z,1.80
2019-03-17T17:35:24.779Z,1.80
2019-03-17T17:37:53.248Z,1.72
2019-03-17T17:40:25.253Z,2.00
2019-03-17T17:42:53.708Z,1.92
2019-03-17T17:45:23.147Z,2.37
2019-03-17T17:47:51.604Z,3.65
2019-03-17T17:50:27.571Z,4.80
2019-03-17T17:52:56.093Z,6.75
2019-03-17T17:55:25.618Z,5.60
2019-03-17T17:57:54.146Z,9.63
2019-03-17T18:00:24.301Z,12.75
2019-03-17T18:02:52.831Z,3.80
2019-03-17T18:05:21.429Z,4.35
2019-03-17T18:07:50.007Z,5.00
2019-03-17T18:10:18.879Z,5.10
2019-03-17T18:12:47.485Z,3.77
2019-03-17T18:15:23.672Z,5.35
2019-03-17T18:17:52.214Z,4.62
2019-03-17T18:20:20.660Z,4.60
2019-03-17T18:22:49.137Z,4.60
2019-03-17T18:25:21.261Z,4.75
2019-03-17T18:27:49.927Z,4.12
2019-03-17T18:30:19.583Z,43.38
2019-03-17T18:32:48.217Z,29.12
2019-03-17T18:35:16.889Z,10.60
2019-03-17T18:37:45.368Z,5.05
2019-03-17T18:40:15.997Z,3.02
2019-03-17T18:42:44.704Z,3.00
2019-03-17T18:45:15.878Z,3.22
2019-03-17T18:47:45.978Z,3.75
2019-03-17T18:50:20.113Z,3.35
2019-03-17T18:52:45.606Z,3.47
2019-03-17T18:55:15.160Z,3.52
2019-03-17T18:57:43.824Z,4.17
2019-03-17T19:00:15.273Z,3.08
2019-03-17T19:02:44.084Z,3.27
2019-03-17T19:05:14.073Z,2.40
2019-03-17T19:07:42.705Z,1.98
2019-03-17T19:10:13.150Z,1.87
2019-03-17T19:12:45.637Z,2.12
2019-03-17T19:15:21.849Z,2.40
2019-03-17T19:17:50.626Z,2.70
2019-03-17T19:20:20.006Z,2.00
2019-03-17T19:22:48.539Z,1.92
2019-03-17T19:25:19.162Z,2.00
2019-03-17T19:27:47.667Z,1.47
2019-03-17T19:30:22.649Z,1.30
2019-03-17T19:32:51.191Z,1.45
2019-03-17T19:35:19.773Z,1.10
2019-03-17T19:37:48.294Z,1.20
2019-03-17T19:40:18.932Z,1.22
2019-03-17T19:42:58.101Z,1.15
2019-03-17T19:45:17.645Z,0.83
2019-03-17T19:47:46.082Z,1.02
2019-03-17T19:50:22.115Z,1.00
2019-03-17T19:52:50.695Z,0.82
2019-03-17T19:55:19.132Z,0.98
2019-03-17T19:57:47.671Z,1.00
2019-03-17T20:00:20.077Z,1.10
2019-03-17T20:02:48.661Z,1.00
2019-03-17T20:05:17.281Z,1.00
2019-03-17T20:07:45.786Z,1.20
2019-03-17T20:10:19.978Z,1.40
2019-03-17T20:12:48.594Z,1.20
2019-03-17T20:15:17.193Z,1.42
2019-03-17T20:17:45.633Z,1.20
2019-03-17T20:20:15.036Z,1.30
2019-03-17T20:22:43.623Z,1.30
2019-03-17T20:25:12.236Z,1.40
2019-03-17T20:27:40.772Z,1.47
2019-03-17T20:30:19.061Z,1.50
2019-03-17T20:32:47.673Z,1.10
2019-03-17T20:35:16.274Z,1.12
2019-03-17T20:37:44.790Z,1.40
2019-03-17T20:40:18.031Z,1.50
2019-03-17T20:42:46.713Z,1.55
2019-03-17T20:45:16.349Z,1.30
2019-03-17T20:47:44.993Z,1.52
2019-03-17T20:50:17.351Z,1.80
2019-03-17T20:52:45.859Z,1.60
2019-03-17T20:55:14.478Z,1.70
2019-03-17T20:57:42.992Z,1.55
2019-03-17T21:00:18.068Z,1.77
2019-03-17T21:02:46.664Z,1.72
2019-03-17T21:05:15.305Z,1.60
2019-03-17T21:07:43.879Z,1.55
2019-03-17T21:10:13.517Z,1.42
2019-03-17T21:12:42.090Z,1.60
2019-03-17T21:15:13.727Z,1.60
2019-03-17T21:17:42.175Z,1.40
2019-03-17T21:20:21.823Z,1.60
2019-03-17T21:22:50.293Z,1.75
2019-03-17T21:25:18.736Z,1.90
2019-03-17T21:27:47.263Z,1.80
2019-03-17T21:30:30.351Z,1.82
2019-03-17T21:32:58.798Z,1.65
2019-03-17T21:35:27.316Z,1.50
2019-03-17T21:37:55.848Z,1.82
2019-03-17T21:40:24.287Z,2.10
2019-03-17T21:42:52.726Z,2.10
2019-03-17T21:45:21.270Z,2.20
2019-03-17T21:47:49.799Z,2.00
2019-03-17T21:50:19.175Z,2.27
2019-03-17T21:52:47.878Z,1.80
2019-03-17T21:55:16.386Z,2.10
2019-03-17T21:57:44.960Z,1.77
2019-03-17T22:00:18.451Z,2.00
2019-03-17T22:02:47.025Z,1.90
2019-03-17T22:05:15.902Z,2.10
2019-03-17T22:07:50.055Z,2.02
2019-03-17T22:10:16.964Z,1.70
2019-03-17T22:12:45.608Z,1.98
2019-03-17T22:15:18.162Z,1.62
2019-03-17T22:17:46.667Z,1.82
2019-03-17T22:20:15.759Z,1.90
2019-03-17T22:22:44.459Z,1.75
2019-03-17T22:25:13.940Z,2.00
2019-03-17T22:27:42.451Z,1.75
2019-03-17T22:30:19.135Z,1.95
2019-03-17T22:32:47.638Z,2.00
2019-03-17T22:35:16.218Z,1.92
2019-03-17T22:37:44.816Z,1.70
2019-03-17T22:40:17.128Z,1.80
2019-03-17T22:42:45.716Z,2.00
2019-03-17T22:45:15.464Z,1.80
2019-03-17T22:47:44.107Z,1.55
2019-03-17T22:50:14.880Z,1.82
2019-03-17T22:52:43.458Z,1.72
2019-03-17T22:55:12.186Z,1.80
2019-03-17T22:57:40.692Z,2.10
2019-03-17T23:00:36.023Z,1.90
2019-03-17T23:03:05.160Z,1.87
2019-03-17T23:05:33.963Z,1.70
2019-03-17T23:08:02.506Z,1.98
2019-03-17T23:10:30.942Z,1.85
2019-03-17T23:12:59.387Z,1.80
2019-03-17T23:15:27.927Z,1.82
2019-03-17T23:17:56.599Z,1.40
2019-03-17T23:20:25.063Z,1.90
2019-03-17T23:22:53.625Z,1.72
2019-03-17T23:25:22.235Z,1.90
2019-03-17T23:27:50.744Z,2.02
2019-03-17T23:30:20.253Z,2.08
2019-03-17T23:32:49.358Z,1.90
2019-03-17T23:35:18.183Z,2.00
2019-03-17T23:37:46.793Z,1.80
2019-03-17T23:40:18.690Z,2.00
2019-03-17T23:42:47.142Z,2.00
2019-03-17T23:45:15.893Z,2.02
2019-03-17T23:47:44.319Z,2.60
2019-03-17T23:50:16.282Z,2.20
2019-03-17T23:52:44.810Z,2.10
2019-03-17T23:55:14.086Z,2.10
2019-03-17T23:57:42.710Z,2.12
